JSC Bldg. 30 Campbell TX US JSCNASA current weather conditions

sailwx.info

Wind from 181 at 5 knots gusting 11

Air temperature 30.4° C
Dewpoint 26.3° C

Last reported at 2020-Jul-06 20:02 UTC.
Time now 2020-Jul-06 21:07 UTC

Location: N 29°33' W 095°05'.
View on Google Maps.

See reports from other nearby stations

  
Tides and Currents Weather Stations Pressure Air Temp Water Temp Dewpoint Dewpoint Depression Visibility Wind Speed Wind Dir Waves Ship Positions
date/time (UTC)wind fromknots sea level pressurealtimeterstation pressurevisibilityair tempwater tempwave heightnotes
2020-Jul-06 20:02 181 5 gusting 11 30.4
2020-Jul-06 19:52 163 8 gusting 11 30.0
2020-Jul-06 19:46 159 11 gusting 14 29.9
2020-Jul-06 19:42 175 7 gusting 13 30.5
2020-Jul-06 19:36 159 10 gusting 14 30.4
2020-Jul-06 19:32 163 10 gusting 14 30.6
2020-Jul-06 19:26 180 7 gusting 10 30.7
2020-Jul-06 19:22 174 7 gusting 13 30.7
2020-Jul-06 19:16 163 6 gusting 9 30.7
2020-Jul-06 19:12 172 6 gusting 11 30.8
2020-Jul-06 19:06 172 7 gusting 13 31.1
2020-Jul-06 19:02 165 5 gusting 7 31.2
2020-Jul-06 18:56 212 6 gusting 11 31.7
2020-Jul-06 18:52 226 8 gusting 11 31.6
2020-Jul-06 18:46 226 9 gusting 12 31.8
2020-Jul-06 18:42 210 10 gusting 13 31.6
2020-Jul-06 18:36 207 7 gusting 9 31.3
2020-Jul-06 18:32 211 6 gusting 9 31.4
2020-Jul-06 18:26 205 6 gusting 10 31.2
2020-Jul-06 18:22 189 5 gusting 9 31.3
2020-Jul-06 18:16 206 8 gusting 12 31.2
2020-Jul-06 18:12 214 8 gusting 11 31.1
2020-Jul-06 18:06 223 6 gusting 8 31.2
2020-Jul-06 18:02 179 5 gusting 9 31.3
2020-Jul-06 17:56 210 5 gusting 10 31.2
2020-Jul-06 17:52 202 10 gusting 14 31.1
2020-Jul-06 17:46 201 8 gusting 13 30.9
2020-Jul-06 17:42 245 4 gusting 11 31.3
2020-Jul-06 17:36 214 8 gusting 14 30.9
2020-Jul-06 17:32 222 10 gusting 13 30.8
2020-Jul-06 17:26 213 10 gusting 14 30.8
2020-Jul-06 17:22 212 11 gusting 15 30.7
2020-Jul-06 17:16 225 11 gusting 14 30.3
2020-Jul-06 17:12 236 7 gusting 12 30.6
2020-Jul-06 17:06 214 9 gusting 16 30.2
2020-Jul-06 17:02 229 7 gusting 11 30.4
2020-Jul-06 16:56 227 10 gusting 13 30.1
2020-Jul-06 16:52 220 9 gusting 13 29.9
2020-Jul-06 16:46 216 11 gusting 14 29.9
2020-Jul-06 16:42 208 7 gusting 14 30.3
2020-Jul-06 16:36 218 8 gusting 11 30.0
2020-Jul-06 16:32 257 8 gusting 12 29.9
2020-Jul-06 16:26 214 9 gusting 12 29.7
2020-Jul-06 16:22 229 7 gusting 10 29.8
2020-Jul-06 16:16 213 6 gusting 9 29.7
2020-Jul-06 16:12 204 8 gusting 12 29.6
2020-Jul-06 16:06 220 12 gusting 14 29.3
2020-Jul-06 16:02 213 9 gusting 14 29.3
2020-Jul-06 15:56 210 10 gusting 15 29.3
2020-Jul-06 15:52 232 9 gusting 12 29.3
2020-Jul-06 15:46 250 6 gusting 12 29.4
2020-Jul-06 15:42 230 8 gusting 11 29.2
2020-Jul-06 14:52 274 4 gusting 6 28.7
2020-Jul-06 14:46 265 5 gusting 7 28.4
2020-Jul-06 14:42 290 3 gusting 5 28.4
2020-Jul-06 14:36 293 5 gusting 6 28.3
2020-Jul-06 14:32 300 4 gusting 5 28.3
2020-Jul-06 14:26 309 4 gusting 6 28.3
2020-Jul-06 14:22 292 4 gusting 6 28.3
2020-Jul-06 14:16 298 2 gusting 4 28.4
2020-Jul-06 14:12 279 5 gusting 6 28.3
2020-Jul-06 14:06 285 3 gusting 5 28.2
2020-Jul-06 14:02 252 3 gusting 5 28.2
2020-Jul-06 13:56 269 4 gusting 6 28.0
2020-Jul-06 13:52 265 5 gusting 6 28.0
2020-Jul-06 13:46 261 4 gusting 5 27.9
2020-Jul-06 13:42 256 5 gusting 7 27.9
2020-Jul-06 13:36 270 4 gusting 5 27.9
2020-Jul-06 13:26 243 1 gusting 3 27.9
2020-Jul-06 13:22 230 2 gusting 5 27.8
2020-Jul-06 13:16 257 2 gusting 6 27.8
2020-Jul-06 13:12 233 4 gusting 6 27.7
2020-Jul-06 12:52 227 5 gusting 7 27.7
2020-Jul-06 12:46 220 5 gusting 8 27.7
2020-Jul-06 12:42 217 6 gusting 10 27.7
2020-Jul-06 12:36 226 6 gusting 8 27.8
2020-Jul-06 12:32 222 8 gusting 11 27.7
2020-Jul-06 12:26 201 7 gusting 12 27.7
2020-Jul-06 12:22 200 8 gusting 11 27.7
2020-Jul-06 12:16 203 6 gusting 12 27.6
2020-Jul-06 12:12 194 6 gusting 11 27.6
2020-Jul-06 12:06 189 8 gusting 12 27.4
2020-Jul-06 12:02 198 4 gusting 9 27.4
2020-Jul-06 11:56 195 7 gusting 12 27.4
2020-Jul-06 11:52 185 5 gusting 11 27.4
2020-Jul-06 11:46 200 6 gusting 11 27.3
2020-Jul-06 11:42 201 8 gusting 13 27.4
2020-Jul-06 11:36 212 8 gusting 13 27.4
2020-Jul-06 11:32 202 6 gusting 9 27.3
2020-Jul-06 11:26 204 7 gusting 10 27.3
2020-Jul-06 11:22 210 6 gusting 11 27.3
2020-Jul-06 11:16 204 6 gusting 10 27.4
2020-Jul-06 11:12 192 5 gusting 10 27.4
2020-Jul-06 11:06 193 5 gusting 9 27.3
2020-Jul-06 11:02 207 5 gusting 8 27.3
2020-Jul-06 10:56 202 6 gusting 11 27.4
2020-Jul-06 10:52 200 7 gusting 10 27.4
2020-Jul-06 10:46 196 6 gusting 12 27.4
2020-Jul-06 10:42 189 7 gusting 11 27.3
2020-Jul-06 10:36 196 7 gusting 10 27.3
2020-Jul-06 10:32 198 6 gusting 11 27.3
2020-Jul-06 10:26 195 8 gusting 12 27.3
2020-Jul-06 10:22 203 7 gusting 11 27.3
2020-Jul-06 10:16 202 7 gusting 9 27.4
2020-Jul-06 10:12 193 7 gusting 10 27.4
2020-Jul-06 10:06 204 7 gusting 12 27.4
2020-Jul-06 10:02 202 6 gusting 11 27.4
2020-Jul-06 09:56 201 7 gusting 10 27.4
2020-Jul-06 09:52 197 5 gusting 10 27.5
2020-Jul-06 09:46 203 7 gusting 9 27.5
2020-Jul-06 09:42 205 7 gusting 10 27.5
2020-Jul-06 09:36 205 6 gusting 10 27.6
2020-Jul-06 09:32 196 7 gusting 11 27.6
2020-Jul-06 09:26 187 5 gusting 9 27.6
2020-Jul-06 09:22 207 8 gusting 11 27.6
2020-Jul-06 09:16 208 8 gusting 10 27.6
2020-Jul-06 09:12 202 7 gusting 10 27.6
2020-Jul-06 09:06 207 6 gusting 9 27.6
2020-Jul-06 09:02 211 7 gusting 10 27.7
2020-Jul-06 08:56 207 6 gusting 10 27.7
2020-Jul-06 08:52 195 9 gusting 15 27.7
2020-Jul-06 08:46 198 10 gusting 15 27.8
2020-Jul-06 08:42 203 10 gusting 17 27.7
2020-Jul-06 08:36 188 9 gusting 16 27.7
2020-Jul-06 08:32 189 8 gusting 16 27.6
2020-Jul-06 08:26 207 6 gusting 10 27.6
2020-Jul-06 08:22 199 9 gusting 15 27.7
2020-Jul-06 08:16 198 7 gusting 14 27.7
2020-Jul-06 08:12 207 7 gusting 11 27.7
2020-Jul-06 08:06 192 5 gusting 11 27.7
2020-Jul-06 08:02 200 8 gusting 14 27.7
2020-Jul-06 07:56 203 8 gusting 12 27.6
2020-Jul-06 07:52 191 7 gusting 11 27.6
2020-Jul-06 07:46 203 8 gusting 12 27.6
2020-Jul-06 07:42 207 8 gusting 12 27.6
2020-Jul-06 07:36 207 6 gusting 11 27.6
2020-Jul-06 07:32 209 6 gusting 10 27.6
2020-Jul-06 07:26 217 6 gusting 10 27.6
2020-Jul-06 07:22 217 8 gusting 11 27.6
2020-Jul-06 07:16 219 7 gusting 10 27.6
2020-Jul-06 07:12 217 7 gusting 11 27.6
2020-Jul-06 07:06 207 8 gusting 10 27.6
2020-Jul-06 07:02 198 7 gusting 12 27.6
2020-Jul-06 06:56 198 9 gusting 12 27.6
2020-Jul-06 06:52 203 6 gusting 12 27.6
2020-Jul-06 06:46 209 7 gusting 10 27.6
2020-Jul-06 06:42 202 4 gusting 8 27.6
2020-Jul-06 06:36 201 7 gusting 13 27.6
2020-Jul-06 06:32 209 7 gusting 11 27.6
2020-Jul-06 06:26 203 7 gusting 12 27.6
2020-Jul-06 06:22 197 8 gusting 12 27.6
2020-Jul-06 06:16 199 5 gusting 10 27.6
2020-Jul-06 06:12 197 8 gusting 11 27.6
2020-Jul-06 06:06 202 4 gusting 7 27.7
2020-Jul-06 06:02 180 4 gusting 7 27.6
2020-Jul-06 05:56 202 6 gusting 10 27.7
2020-Jul-06 05:52 191 4 gusting 9 27.7
2020-Jul-06 05:46 204 8 gusting 11 27.7
2020-Jul-06 05:42 180 3 gusting 11 27.8
2020-Jul-06 05:36 202 5 gusting 9 27.8
2020-Jul-06 05:32 202 8 gusting 12 27.8
2020-Jul-06 05:26 203 6 gusting 10 27.8
2020-Jul-06 05:22 197 7 gusting 11 27.8
2020-Jul-06 05:16 195 7 gusting 12 27.8
2020-Jul-06 05:12 209 4 gusting 8 27.8
2020-Jul-06 05:06 202 6 gusting 10 27.8
2020-Jul-06 05:02 200 7 gusting 9 27.8
2020-Jul-06 04:56 198 5 gusting 9 27.7
2020-Jul-06 04:52 204 7 gusting 10 27.7
2020-Jul-06 04:46 194 7 gusting 11 27.7
2020-Jul-06 04:42 196 8 gusting 11 27.7
2020-Jul-06 04:36 199 8 gusting 13 27.8
2020-Jul-06 04:32 193 8 gusting 12 27.8
2020-Jul-06 04:26 199 8 gusting 11 27.8
2020-Jul-06 04:22 197 4 gusting 8 27.8
2020-Jul-06 04:16 204 8 gusting 11 27.8
2020-Jul-06 04:12 202 6 gusting 10 27.8
2020-Jul-06 04:06 197 9 gusting 14 27.9
2020-Jul-06 04:02 200 7 gusting 13 27.9
2020-Jul-06 03:56 204 8 gusting 12 27.9
2020-Jul-06 03:52 193 8 gusting 13 27.9
2020-Jul-06 03:46 198 9 gusting 13 27.9
2020-Jul-06 03:42 194 9 gusting 14 27.9
2020-Jul-06 03:36 206 9 gusting 14 27.9
2020-Jul-06 03:32 210 10 gusting 14 28.0
2020-Jul-06 03:26 198 6 gusting 12 28.1
2020-Jul-06 03:22 205 8 gusting 11 28.1
2020-Jul-06 03:16 212 9 gusting 13 28.1
2020-Jul-06 03:12 213 10 gusting 15 28.1
2020-Jul-06 03:06 213 9 gusting 13 28.2
2020-Jul-06 03:02 214 11 gusting 15 28.2
2020-Jul-06 02:56 214 13 gusting 17 28.3
2020-Jul-06 02:52 210 9 gusting 15 28.3
2020-Jul-06 02:46 212 11 gusting 16 28.3
2020-Jul-06 02:42 212 10 gusting 16 28.3
2020-Jul-06 02:36 213 13 gusting 17 28.3
2020-Jul-06 02:32 209 9 gusting 14 28.4
2020-Jul-06 02:26 204 11 gusting 16 28.4
2020-Jul-06 02:22 209 11 gusting 16 28.5
2020-Jul-06 02:16 211 15 gusting 20 28.5
2020-Jul-06 02:12 211 14 gusting 21 28.6
2020-Jul-06 02:06 216 14 gusting 18 28.7
2020-Jul-06 02:02 214 12 gusting 16 28.8
2020-Jul-06 01:56 212 11 gusting 16 28.9
2020-Jul-06 01:52 213 12 gusting 15 29.0
2020-Jul-06 01:46 213 10 gusting 14 29.1
2020-Jul-06 01:42 212 9 gusting 17 29.2
2020-Jul-06 01:36 209 11 gusting 17 29.2
2020-Jul-06 01:32 205 10 gusting 15 29.3
2020-Jul-06 01:26 202 5 gusting 12 29.4
2020-Jul-06 01:22 201 8 gusting 15 29.4
2020-Jul-06 01:16 200 12 gusting 19 29.5
2020-Jul-06 01:12 205 10 gusting 18 29.5
2020-Jul-06 01:06 197 13 gusting 18 29.6
2020-Jul-06 01:02 205 11 gusting 23 29.6
2020-Jul-06 00:56 205 7 gusting 15 29.9
2020-Jul-06 00:52 194 11 gusting 17 29.8
2020-Jul-06 00:46 193 8 gusting 14 29.9
2020-Jul-06 00:42 190 8 gusting 15 29.9
2020-Jul-06 00:36 193 8 gusting 12 30.1
2020-Jul-06 00:32 204 7 gusting 18 30.1
2020-Jul-06 00:26 192 11 gusting 17 30.1
2020-Jul-06 00:22 195 6 gusting 12 30.4
2020-Jul-06 00:16 188 7 gusting 18 30.3
2020-Jul-06 00:12 187 6 gusting 14 30.6
2020-Jul-06 00:06 181 6 gusting 12 30.7
2020-Jul-06 00:02 185 6 gusting 10 30.8
2020-Jul-05 23:56 197 10 gusting 17 30.8
2020-Jul-05 23:52 191 8 gusting 16 31.1
2020-Jul-05 23:46 178 5 gusting 13 31.4
2020-Jul-05 23:42 183 8 gusting 15 31.7
2020-Jul-05 23:36 190 6 gusting 9 32.7
2020-Jul-05 23:32 199 8 gusting 13 32.5
2020-Jul-05 23:26 200 9 gusting 12 32.6
2020-Jul-05 23:22 208 7 gusting 9 32.7
2020-Jul-05 23:16 209 8 gusting 11 32.6
2020-Jul-05 23:12 201 9 gusting 12 32.8
2020-Jul-05 23:06 217 6 gusting 9 33.1
2020-Jul-05 23:02 226 3 gusting 7 33.2
2020-Jul-05 22:56 235 3 gusting 5 33.2
2020-Jul-05 22:52 213 5 gusting 7 33.1
2020-Jul-05 22:46 240 4 gusting 7 33.6
2020-Jul-05 22:42 230 4 gusting 6 33.6
2020-Jul-05 22:36 217 3 gusting 6 33.6
2020-Jul-05 22:32 216 8 gusting 10 33.4
2020-Jul-05 22:26 192 6 gusting 10 33.3
2020-Jul-05 22:22 234 3 gusting 5 33.7
2020-Jul-05 22:16 266 6 gusting 8 33.4
2020-Jul-05 22:12 260 5 gusting 9 33.9
2020-Jul-05 22:06 198 4 gusting 9 34.1
2020-Jul-05 22:02 258 4 gusting 7 34.1
2020-Jul-05 21:56 257 3 gusting 6 34.2
2020-Jul-05 21:52 180 3 gusting 5 33.6
2020-Jul-05 21:46 151 3 gusting 6 33.9
2020-Jul-05 21:42 136 3 gusting 4 33.7
2020-Jul-05 21:36 156 2 gusting 3 33.4
2020-Jul-05 21:32 277 3 gusting 5 33.2
2020-Jul-05 21:26 259 4 gusting 6 33.4
2020-Jul-05 21:22 262 7 gusting 9 33.1
2020-Jul-05 21:16 292 9 gusting 14 33.3
2020-Jul-05 21:12 177 4 gusting 7 33.4
2020-Jul-05 21:06 191 5 gusting 7 32.9
2020-Jul-05 21:02 221 2 gusting 5 33.7
2020-Jul-05 20:56 211 3 gusting 6 33.3
2020-Jul-05 20:52 247 2 gusting 4 33.4
2020-Jul-05 20:46 271 6 gusting 8 32.9
2020-Jul-05 20:42 182 3 gusting 5 33.4
2020-Jul-05 20:36 307 3 gusting 5 32.9
2020-Jul-05 20:32 226 4 gusting 7 32.9
2020-Jul-05 20:26 302 2 gusting 4 32.8
2020-Jul-05 20:22 307 2 gusting 4 32.7
2020-Jul-05 20:16 287 2 gusting 4 32.7
2020-Jul-05 20:12 267 4 gusting 9 32.9
2020-Jul-05 20:06 210 3 gusting 6 32.8
2020-Jul-05 20:02 282 4 gusting 8 32.7
2020-Jul-05 19:56 290 5 gusting 9 32.4
2020-Jul-05 19:52 298 4 gusting 6 32.8
2020-Jul-05 19:46 239 3 gusting 5 32.6
2020-Jul-05 19:42 261 7 gusting 10 32.3
2020-Jul-05 19:36 305 4 gusting 9 32.7
2020-Jul-05 19:32 272 4 gusting 7 32.2
2020-Jul-05 19:26 300 4 gusting 11 32.1
2020-Jul-05 19:22 290 6 gusting 11 31.6
2020-Jul-05 19:16 273 8 gusting 11 31.8
2020-Jul-05 19:12 282 8 gusting 11 31.9
2020-Jul-05 19:06 292 2 gusting 5 31.8
2020-Jul-05 19:02 305 1 gusting 3 31.8
2020-Jul-05 18:56 287 6 gusting 8 31.2
2020-Jul-05 18:52 298 7 gusting 11 31.3
2020-Jul-05 18:46 301 6 gusting 10 31.4
2020-Jul-05 18:42 253 4 gusting 8 31.5
2020-Jul-05 18:36 257 4 gusting 8 31.6
2020-Jul-05 18:32 240 5 gusting 11 31.3
2020-Jul-05 18:26 242 4 gusting 9 31.8
2020-Jul-05 18:22 236 6 gusting 10 31.4
2020-Jul-05 18:16 319 3 gusting 8 32.2
2020-Jul-05 18:12 251 3 gusting 7 31.3
2020-Jul-05 18:06 272 4 gusting 6 31.1
2020-Jul-05 18:02 277 5 gusting 7 30.7
2020-Jul-05 17:56 263 6 gusting 9 30.6
2020-Jul-05 17:52 287 6 gusting 9 30.8
2020-Jul-05 17:46 273 4 gusting 8 30.5
2020-Jul-05 17:42 267 9 gusting 11 30.2
2020-Jul-05 17:36 275 9 gusting 12 30.4
2020-Jul-05 17:32 283 7 gusting 14 30.5
2020-Jul-05 17:26 287 9 gusting 14 30.2
2020-Jul-05 17:22 280 9 gusting 12 30.6
2020-Jul-05 17:16 260 8 gusting 11 30.2
2020-Jul-05 17:12 263 10 gusting 12 30.1
2020-Jul-05 17:06 280 9 gusting 12 30.2
2020-Jul-05 17:02 244 4 gusting 11 30.8
2020-Jul-05 16:56 238 4 gusting 9 30.6
2020-Jul-05 16:52 251 6 gusting 9 30.1
2020-Jul-05 16:46 259 10 gusting 14 30.2
2020-Jul-05 16:42 259 9 gusting 13 29.9
2020-Jul-05 16:36 255 5 gusting 10 30.2
2020-Jul-05 16:32 258 9 gusting 11 29.7
2020-Jul-05 16:26 224 8 gusting 13 30.0
2020-Jul-05 16:22 288 5 gusting 8 30.5
2020-Jul-05 16:16 254 8 gusting 14 30.0
2020-Jul-05 16:12 216 8 gusting 13 30.2
2020-Jul-05 16:06 262 8 gusting 12 29.7
2020-Jul-05 16:02 214 8 gusting 13 29.7
2020-Jul-05 15:56 231 7 gusting 11 29.7
2020-Jul-05 15:52 216 7 gusting 13 29.6
2020-Jul-05 15:46 241 5 gusting 10 29.6
2020-Jul-05 15:42 216 9 gusting 12 29.4
2020-Jul-05 15:36 242 9 gusting 14 29.2
2020-Jul-05 15:32 231 9 gusting 12 29.1
2020-Jul-05 15:26 259 7 gusting 12 29.1
2020-Jul-05 15:22 235 7 gusting 12 28.9
2020-Jul-05 15:16 256 10 gusting 16 28.7
2020-Jul-05 15:12 252 11 gusting 16 28.4
2020-Jul-05 15:06 239 9 gusting 14 28.8
2020-Jul-05 15:02 257 8 gusting 14 28.6
2020-Jul-05 14:56 240 10 gusting 19 28.6
2020-Jul-05 14:52 245 9 gusting 15 28.4
2020-Jul-05 14:46 266 9 gusting 14 28.7
2020-Jul-05 14:42 239 10 gusting 16 28.4
2020-Jul-05 14:36 245 10 gusting 15 28.2
2020-Jul-05 14:32 249 13 gusting 17 28.0
2020-Jul-05 14:26 252 12 gusting 19 27.8
2020-Jul-05 14:22 257 9 gusting 14 27.9
2020-Jul-05 14:16 234 8 gusting 14 27.9
2020-Jul-05 14:12 239 9 gusting 16 27.8
2020-Jul-05 14:06 229 7 gusting 15 27.7
2020-Jul-05 14:02 228 6 gusting 15 27.7
2020-Jul-05 13:56 227 11 gusting 16 27.6
2020-Jul-05 13:52 232 8 gusting 13 27.6
2020-Jul-05 13:46 265 4 gusting 9 27.6
2020-Jul-05 13:42 255 10 gusting 14 27.3
2020-Jul-05 13:36 266 4 gusting 9 27.4
2020-Jul-05 13:32 242 6 gusting 10 27.3
2020-Jul-05 13:26 236 7 gusting 13 27.1
2020-Jul-05 13:22 237 4 gusting 9 27.1
2020-Jul-05 13:16 259 3 gusting 9 27.0
2020-Jul-05 13:12 234 5 gusting 9 26.8
2020-Jul-05 13:06 263 2 gusting 6 26.7
2020-Jul-05 13:02 259 6 gusting 10 26.4
2020-Jul-05 12:56 262 7 gusting 9 26.3
2020-Jul-05 12:52 257 6 gusting 9 26.3
2020-Jul-05 12:46 230 6 gusting 9 26.3
2020-Jul-05 12:42 227 4 gusting 7 26.2
2020-Jul-05 12:36 234 2 gusting 4 26.0
2020-Jul-05 12:32 230 4 gusting 6 26.0
2020-Jul-05 12:26 234 4 gusting 6 25.8
2020-Jul-05 12:22 239 4 gusting 7 25.7
2020-Jul-05 12:16 228 7 gusting 9 25.7
2020-Jul-05 12:12 225 6 gusting 8 25.7
2020-Jul-05 12:06 219 6 gusting 9 25.7
2020-Jul-05 12:02 236 5 gusting 9 25.6
2020-Jul-05 11:56 239 5 gusting 7 25.6
2020-Jul-05 11:52 237 4 gusting 6 25.5
2020-Jul-05 11:46 243 3 gusting 5 25.5
2020-Jul-05 11:42 251 4 gusting 7 25.5
2020-Jul-05 11:36 257 5 gusting 7 25.5
2020-Jul-05 11:32 263 3 gusting 5 25.5
2020-Jul-05 11:26 241 4 gusting 7 25.6
2020-Jul-05 11:22 247 3 gusting 7 25.5
2020-Jul-05 11:16 258 5 gusting 9 25.5
2020-Jul-05 11:12 247 4 gusting 6 25.5
2020-Jul-05 11:06 253 5 gusting 7 25.5
2020-Jul-05 11:02 252 6 gusting 9 25.6
2020-Jul-05 10:56 254 6 gusting 9 25.7
2020-Jul-05 10:52 251 6 gusting 8 25.7
2020-Jul-05 10:46 258 6 gusting 8 25.7
2020-Jul-05 10:42 256 6 gusting 8 25.8
2020-Jul-05 10:36 267 5 gusting 6 25.8
2020-Jul-05 10:32 261 6 gusting 8 25.9
2020-Jul-05 10:26 257 6 gusting 7 26.0
2020-Jul-05 10:22 252 6 gusting 8 26.0
2020-Jul-05 10:16 242 5 gusting 7 25.9
2020-Jul-05 10:12 252 8 gusting 10 25.9
2020-Jul-05 10:06 248 7 gusting 10 25.9
2020-Jul-05 10:02 252 7 gusting 10 25.9
2020-Jul-05 09:56 251 8 gusting 10 26.0
2020-Jul-05 09:52 253 6 gusting 8 26.0
2020-Jul-05 09:46 246 4 gusting 6 26.1
2020-Jul-05 09:42 235 7 gusting 10 26.2
2020-Jul-05 09:36 223 5 gusting 7 26.2
2020-Jul-05 09:32 231 4 gusting 9 26.2
2020-Jul-05 09:26 244 4 gusting 8 26.2
2020-Jul-05 09:22 242 5 gusting 10 26.2
2020-Jul-05 09:16 237 5 gusting 8 26.2
2020-Jul-05 09:12 234 5 gusting 9 26.2
2020-Jul-05 09:06 235 7 gusting 11 26.2
2020-Jul-05 09:02 235 7 gusting 9 26.2
2020-Jul-05 08:56 231 6 gusting 8 26.2
2020-Jul-05 08:52 229 6 gusting 9 26.2
2020-Jul-05 08:46 232 6 gusting 9 26.2
2020-Jul-05 08:42 218 5 gusting 8 26.2
2020-Jul-05 08:36 218 6 gusting 8 26.2
2020-Jul-05 08:32 225 6 gusting 8 26.3
2020-Jul-05 08:26 226 7 gusting 11 26.3
2020-Jul-05 08:22 224 7 gusting 10 26.4
2020-Jul-05 08:16 224 8 gusting 10 26.4
2020-Jul-05 08:12 232 6 gusting 9 26.3
2020-Jul-05 08:06 227 8 gusting 10 26.3
2020-Jul-05 08:02 229 7 gusting 10 26.4
2020-Jul-05 07:56 237 7 gusting 12 26.4
2020-Jul-05 07:52 228 8 gusting 11 26.4
2020-Jul-05 07:46 229 8 gusting 11 26.4
2020-Jul-05 07:42 229 9 gusting 11 26.5
2020-Jul-05 07:36 219 8 gusting 11 26.5
2020-Jul-05 07:32 222 8 gusting 11 26.5
2020-Jul-05 07:26 218 8 gusting 12 26.5
2020-Jul-05 07:22 224 7 gusting 11 26.5
2020-Jul-05 07:16 217 5 gusting 8 26.6
2020-Jul-05 07:12 217 7 gusting 10 26.6
2020-Jul-05 07:06 217 6 gusting 10 26.7
2020-Jul-05 07:02 229 8 gusting 11 26.8
2020-Jul-05 06:56 226 4 gusting 6 26.8
2020-Jul-05 06:52 232 6 gusting 10 26.8
2020-Jul-05 06:46 234 6 gusting 9 26.8
2020-Jul-05 06:42 219 6 gusting 10 26.8
2020-Jul-05 06:36 227 5 gusting 9 26.8
2020-Jul-05 06:32 230 6 gusting 10 26.8
2020-Jul-05 06:26 219 6 gusting 9 26.9
2020-Jul-05 06:22 230 6 gusting 10 26.9
2020-Jul-05 06:16 226 7 gusting 10 26.9
2020-Jul-05 06:12 230 8 gusting 11 26.9
2020-Jul-05 06:06 228 6 gusting 10 27.0
2020-Jul-05 06:02 232 8 gusting 10 27.1
2020-Jul-05 05:56 225 5 gusting 8 27.1
2020-Jul-05 05:52 225 5 gusting 8 27.1
2020-Jul-05 05:46 223 7 gusting 10 27.1
2020-Jul-05 05:42 227 7 gusting 9 27.1
2020-Jul-05 05:36 222 7 gusting 10 27.2
2020-Jul-05 05:32 214 7 gusting 12 27.2
2020-Jul-05 05:26 218 7 gusting 11 27.3
2020-Jul-05 05:22 232 6 gusting 9 27.3
2020-Jul-05 05:16 232 7 gusting 12 27.3
2020-Jul-05 05:12 230 7 gusting 10 27.3
2020-Jul-05 05:06 226 5 gusting 9 27.4
2020-Jul-05 05:02 225 6 gusting 9 27.4
2020-Jul-05 04:56 224 6 gusting 9 27.4
2020-Jul-05 04:52 219 5 gusting 9 27.5
2020-Jul-05 04:46 223 6 gusting 9 27.5
2020-Jul-05 04:42 215 7 gusting 11 27.5
2020-Jul-05 04:36 221 7 gusting 10 27.6
2020-Jul-05 04:32 217 7 gusting 11 27.6
2020-Jul-05 04:26 221 10 gusting 12 27.6
2020-Jul-05 04:22 222 7 gusting 9 27.7
2020-Jul-05 04:16 221 7 gusting 12 28.1
2020-Jul-05 04:12 217 8 gusting 12 27.9
2020-Jul-05 04:06 213 11 gusting 14 27.9
2020-Jul-05 04:02 196 8 gusting 12 28.0
2020-Jul-05 03:56 208 11 gusting 15 28.0
2020-Jul-05 03:52 205 11 gusting 16 28.1
2020-Jul-05 03:46 208 8 gusting 10 28.2
2020-Jul-05 03:42 208 8 gusting 13 28.2
2020-Jul-05 03:36 199 8 gusting 13 28.3
2020-Jul-05 03:32 204 9 gusting 13 28.3
2020-Jul-05 03:26 207 11 gusting 15 28.4
2020-Jul-05 03:22 204 9 gusting 13 28.6
2020-Jul-05 03:16 208 9 gusting 15 28.6
2020-Jul-05 03:12 204 6 gusting 14 28.7
2020-Jul-05 03:06 205 8 gusting 13 28.7
2020-Jul-05 03:02 202 7 gusting 13 28.8
2020-Jul-05 02:56 200 6 gusting 11 28.8
2020-Jul-05 02:52 202 10 gusting 15 28.9
2020-Jul-05 02:46 202 7 gusting 12 29.0
2020-Jul-05 02:42 191 8 gusting 13 29.0
2020-Jul-05 02:36 198 10 gusting 14 29.1
2020-Jul-05 02:32 195 7 gusting 15 29.2
2020-Jul-05 02:26 193 7 gusting 13 29.3
2020-Jul-05 02:22 189 8 gusting 13 29.3
2020-Jul-05 02:16 192 9 gusting 14 29.3
2020-Jul-05 02:12 194 10 gusting 15 29.4
2020-Jul-05 02:06 186 6 gusting 12 29.4
2020-Jul-05 02:02 189 8 gusting 12 29.4
2020-Jul-05 01:56 199 4 gusting 8 29.7
2020-Jul-05 01:52 187 4 gusting 8 29.8
2020-Jul-05 01:46 164 3 gusting 6 29.8
2020-Jul-05 01:42 181 8 gusting 12 29.8
2020-Jul-05 01:36 180 4 gusting 10 30.1
2020-Jul-05 01:32 179 5 gusting 9 30.2
2020-Jul-05 01:26 188 6 gusting 9 30.2
2020-Jul-05 01:22 188 7 gusting 11 30.2
2020-Jul-05 01:02 198 6 gusting 11 30.8
2020-Jul-05 00:52 185 9 gusting 13 31.0
2020-Jul-05 00:46 196 7 gusting 14 31.3
2020-Jul-05 00:42 199 6 gusting 12 31.3
2020-Jul-05 00:36 164 8 gusting 12 31.3
2020-Jul-05 00:32 176 7 gusting 15 31.6
2020-Jul-05 00:26 165 5 gusting 11 32.3
2020-Jul-05 00:22 200 8 gusting 14 32.2
2020-Jul-05 00:16 202 9 gusting 15 32.2
2020-Jul-05 00:12 202 5 gusting 13 32.5
2020-Jul-05 00:06 203 8 gusting 14 32.5
2020-Jul-05 00:02 193 6 gusting 12 32.8
2020-Jul-04 23:56 208 8 gusting 12 32.8
2020-Jul-04 23:52 191 7 gusting 12 32.9
2020-Jul-04 23:46 202 5 gusting 9 33.6
2020-Jul-04 23:42 216 7 gusting 10 33.3
2020-Jul-04 23:36 238 3 gusting 4 33.6
2020-Jul-04 23:32 228 3 gusting 4 33.6
2020-Jul-04 23:26 197 3 gusting 7 34.0
2020-Jul-04 23:22 176 4 gusting 6 34.1
2020-Jul-04 23:16 133 1 gusting 3 34.4
2020-Jul-04 23:12 198 4 gusting 7 33.7
2020-Jul-04 23:06 208 5 gusting 8 33.6
2020-Jul-04 23:02 201 5 gusting 8 33.9
2020-Jul-04 22:56 213 7 gusting 9 33.5
2020-Jul-04 22:52 175 5 gusting 9 33.9
2020-Jul-04 22:46 214 5 gusting 9 33.9
2020-Jul-04 22:42 169 3 gusting 5 33.9
2020-Jul-04 22:36 175 6 gusting 9 33.7
2020-Jul-04 22:32 220 6 gusting 11 33.7
2020-Jul-04 22:26 212 4 gusting 10 34.2
2020-Jul-04 22:22 202 5 gusting 7 33.4
2020-Jul-04 22:16 146 3 gusting 6 34.0
2020-Jul-04 22:12 190 6 gusting 9 33.9
2020-Jul-04 22:06 191 5 gusting 9 33.8
2020-Jul-04 22:02 208 5 gusting 9 34.0
2020-Jul-04 21:56 159 4 gusting 7 33.7
2020-Jul-04 21:52 202 4 gusting 9 34.2
2020-Jul-04 21:46 187 4 gusting 8 34.2
2020-Jul-04 21:42 211 4 gusting 8 33.9
2020-Jul-04 21:36 162 2 gusting 5 34.5
2020-Jul-04 21:32 145 1 gusting 4 33.9
2020-Jul-04 21:26 230 3 gusting 9 34.1
2020-Jul-04 21:22 195 3 gusting 6 33.6
2020-Jul-04 21:16 204 4 gusting 8 33.9
2020-Jul-04 21:12 287 2 gusting 4 33.6
2020-Jul-04 21:06 276 5 gusting 7 33.6
2020-Jul-04 21:02 239 5 gusting 9 33.3